createdAt,value
2023-03-08T00:01:29.527Z,97308.28
2023-03-08T00:06:32.452Z,97306.47
2023-03-08T00:11:36.750Z,97316.56
2023-03-08T00:16:39.657Z,97328.06
2023-03-08T00:21:42.574Z,97340.91
2023-03-08T00:26:46.858Z,97345.56
2023-03-08T00:31:49.987Z,97334.41
2023-03-08T00:36:52.941Z,97347.91
2023-03-08T00:41:57.228Z,97344.22
2023-03-08T00:47:00.271Z,97361.63
2023-03-08T00:52:03.202Z,97360.34
2023-03-08T00:57:07.566Z,97368.91
2023-03-08T01:02:10.532Z,97372.72
2023-03-08T01:07:15.682Z,97360.72
2023-03-08T01:12:22.704Z,97367.34
2023-03-08T01:17:25.799Z,97362.44
2023-03-08T01:22:28.737Z,97381.91
2023-03-08T01:27:33.242Z,97364.81
2023-03-08T01:32:36.228Z,97362.22
2023-03-08T01:37:39.137Z,97377.38
2023-03-08T01:42:43.498Z,97357.50
2023-03-08T01:47:46.337Z,97357.09
2023-03-08T01:52:56.727Z,97360.69
2023-03-08T01:58:01.004Z,97354.66
2023-03-08T02:03:08.059Z,97368.63
2023-03-08T02:08:11.077Z,97354.16
2023-03-08T02:13:16.682Z,97363.25
2023-03-08T02:18:20.723Z,97350.28
2023-03-08T02:23:26.576Z,97366.53
2023-03-08T02:28:30.575Z,97358.47
2023-03-08T02:33:34.903Z,97356.16
2023-03-08T02:38:39.215Z,97352.66
2023-03-08T02:43:42.152Z,97357.06
2023-03-08T02:48:46.160Z,97369.88
2023-03-08T02:53:50.550Z,97359.78
2023-03-08T02:58:53.730Z,97365.16
2023-03-08T03:03:58.648Z,97356.13
2023-03-08T03:09:06.766Z,97375.78
2023-03-08T03:14:10.031Z,97369.38
2023-03-08T03:19:17.316Z,97371.59
2023-03-08T03:24:21.634Z,97371.03
2023-03-08T03:29:29.386Z,97368.06
2023-03-08T03:34:42.385Z,97376.38
2023-03-08T03:39:47.759Z,97377.63
2023-03-08T03:44:53.288Z,97375.75
2023-03-08T03:49:58.113Z,97379.34
2023-03-08T03:55:05.680Z,97392.47
2023-03-08T04:00:09.975Z,97394.28
2023-03-08T04:05:22.725Z,97395.16
2023-03-08T04:10:30.062Z,97397.22
2023-03-08T04:15:33.657Z,97398.91
2023-03-08T04:20:40.890Z,97411.44
2023-03-08T04:25:48.072Z,97402.13
2023-03-08T04:30:52.235Z,97401.53
2023-03-08T04:35:56.157Z,97404.34
2023-03-08T04:41:10.339Z,97395.19
2023-03-08T04:46:36.330Z,97392.03
2023-03-08T04:51:39.897Z,97385.47
2023-03-08T04:56:46.222Z,97387.75
2023-03-08T05:01:51.062Z,97385.69
2023-03-08T05:06:54.474Z,97398.47
2023-03-08T05:12:02.393Z,97395.44
2023-03-08T05:17:30.485Z,97392.66
2023-03-08T05:22:45.014Z,97396.72
2023-03-08T05:27:56.766Z,97397.78
2023-03-08T05:32:59.754Z,97396.84
2023-03-08T05:38:03.011Z,97398.31
2023-03-08T05:43:07.974Z,97413.63
2023-03-08T05:48:12.329Z,97418.63
2023-03-08T05:53:15.282Z,97415.22
2023-03-08T05:58:20.120Z,97424.31
2023-03-08T06:03:23.135Z,97419.44
2023-03-08T06:08:26.552Z,97424.44
2023-03-08T06:13:31.470Z,97425.19
2023-03-08T06:18:36.403Z,97419.66
2023-03-08T06:23:41.330Z,97434.34
2023-03-08T06:28:46.759Z,97440.16
2023-03-08T06:33:49.777Z,97424.09
2023-03-08T06:38:59.654Z,97408.16
2023-03-08T06:44:04.064Z,97412.72
2023-03-08T06:49:07.804Z,97388.81
2023-03-08T06:54:14.862Z,97405.06
2023-03-08T06:59:19.302Z,97400.34
2023-03-08T07:04:22.255Z,97416.66
2023-03-08T07:09:25.763Z,97416.19
2023-03-08T07:14:30.086Z,97420.25
2023-03-08T07:19:33.009Z,97432.16
2023-03-08T07:24:35.869Z,97418.91
2023-03-08T07:29:40.137Z,97421.28
2023-03-08T07:34:43.248Z,97426.63
2023-03-08T07:39:46.167Z,97413.16
2023-03-08T07:44:50.458Z,97417.00
2023-03-08T07:49:53.339Z,97421.16
2023-03-08T07:54:56.301Z,97407.41
2023-03-08T08:00:00.574Z,97419.94
2023-03-08T08:05:04.650Z,97412.00
2023-03-08T08:10:08.866Z,97413.88
2023-03-08T08:15:13.582Z,97402.75
2023-03-08T08:20:16.681Z,97395.31
2023-03-08T08:25:20.377Z,97391.63
2023-03-08T08:30:24.797Z,97386.41
2023-03-08T08:35:42.070Z,97391.66
2023-03-08T08:40:45.851Z,97383.63
2023-03-08T08:45:55.605Z,97383.03
2023-03-08T08:50:59.895Z,97377.09
2023-03-08T08:56:23.735Z,97367.47
2023-03-08T09:01:33.371Z,97361.66
2023-03-08T09:06:36.353Z,97355.56
2023-03-08T09:11:53.436Z,97342.94
2023-03-08T09:16:58.906Z,97339.13
2023-03-08T09:22:01.932Z,97330.47
2023-03-08T09:27:06.509Z,97321.66
2023-03-08T09:32:10.940Z,97319.63
2023-03-08T09:37:13.997Z,97301.03
2023-03-08T09:42:23.467Z,97305.25
2023-03-08T09:47:44.070Z,97282.22
2023-03-08T09:52:52.116Z,97277.72
2023-03-08T09:57:57.320Z,97275.44
2023-03-08T10:03:39.081Z,97258.25
2023-03-08T10:08:50.816Z,97253.22
2023-03-08T10:13:57.722Z,97248.41
2023-03-08T10:19:06.416Z,97246.00
2023-03-08T10:24:16.813Z,97245.81
2023-03-08T10:29:19.741Z,97233.84
2023-03-08T10:34:31.216Z,97238.47
2023-03-08T10:39:36.959Z,97229.97
2023-03-08T10:44:42.865Z,97225.34
2023-03-08T10:49:47.421Z,97220.94
2023-03-08T10:55:03.183Z,97212.50
2023-03-08T11:00:22.253Z,97195.13
2023-03-08T11:05:27.637Z,97187.41
2023-03-08T11:10:32.717Z,97179.28
2023-03-08T11:15:41.565Z,97165.75
2023-03-08T11:20:50.392Z,97149.63
2023-03-08T11:26:01.133Z,97135.47
2023-03-08T11:31:15.639Z,97126.84
2023-03-08T11:36:23.509Z,97112.84
2023-03-08T11:41:38.288Z,97100.72
2023-03-08T11:46:52.898Z,97084.44
2023-03-08T11:52:03.885Z,97080.50
2023-03-08T11:57:11.726Z,97062.63
2023-03-08T12:02:20.354Z,97048.97
2023-03-08T12:07:29.111Z,97045.31
2023-03-08T12:12:38.674Z,97037.81
2023-03-08T12:17:45.429Z,97024.03
2023-03-08T12:22:52.265Z,97020.78
2023-03-08T12:28:01.232Z,97018.69
2023-03-08T12:33:06.586Z,97015.78
2023-03-08T12:38:35.430Z,97015.13
2023-03-08T12:43:40.593Z,97017.13
2023-03-08T12:48:50.319Z,97002.03
2023-03-08T12:54:02.016Z,97008.13
2023-03-08T12:59:37.778Z,97000.25
2023-03-08T13:04:42.706Z,97010.50
2023-03-08T13:09:54.084Z,97012.84
2023-03-08T13:15:08.855Z,97009.50
2023-03-08T13:20:19.433Z,97010.97
2023-03-08T13:25:34.131Z,97003.63
2023-03-08T13:30:43.895Z,96996.50
2023-03-08T13:35:56.376Z,96994.78
2023-03-08T13:41:00.213Z,96985.44
2023-03-08T13:46:07.638Z,96979.22
2023-03-08T13:51:16.718Z,96962.47
2023-03-08T13:56:24.633Z,96953.38
2023-03-08T14:01:28.940Z,96938.84
2023-03-08T14:06:36.662Z,96933.44
2023-03-08T14:11:42.209Z,96941.47
2023-03-08T14:16:48.500Z,96924.34
2023-03-08T14:21:53.429Z,96917.00
2023-03-08T14:27:00.510Z,96913.44
2023-03-08T14:32:26.889Z,96911.59
2023-03-08T14:37:31.803Z,96910.81
2023-03-08T14:42:41.671Z,96913.06
2023-03-08T14:47:52.351Z,96910.69
2023-03-08T14:52:57.349Z,96883.50
2023-03-08T14:58:03.298Z,96879.69
2023-03-08T15:03:07.576Z,96883.75
2023-03-08T15:08:12.849Z,96861.03
2023-03-08T15:13:17.438Z,96839.63
2023-03-08T15:18:21.920Z,96850.00
2023-03-08T15:23:27.473Z,96846.97
2023-03-08T15:28:30.618Z,96845.50
2023-03-08T15:33:34.873Z,96844.84
2023-03-08T15:38:37.853Z,96838.97
2023-03-08T15:43:40.803Z,96828.47
2023-03-08T15:48:46.060Z,96809.13
2023-03-08T15:53:50.078Z,96811.38
2023-03-08T15:58:53.162Z,96805.59
2023-03-08T16:03:58.221Z,96801.41
2023-03-08T16:09:01.133Z,96788.88
2023-03-08T16:14:04.024Z,96790.00
2023-03-08T16:19:08.299Z,96802.75
2023-03-08T16:24:13.344Z,96798.91
2023-03-08T16:29:16.498Z,96794.75
2023-03-08T16:34:22.141Z,96784.94
2023-03-08T16:39:26.545Z,96785.38
2023-03-08T16:44:31.605Z,96797.88
2023-03-08T16:49:36.812Z,96792.94
2023-03-08T16:54:39.779Z,96781.66
2023-03-08T16:59:42.689Z,96785.94
2023-03-08T17:04:47.680Z,96782.88
2023-03-08T17:09:50.960Z,96769.94
2023-03-08T17:14:54.037Z,96778.84
2023-03-08T17:19:58.386Z,96782.31
2023-03-08T17:25:01.478Z,96764.38
2023-03-08T17:30:04.964Z,96766.88
2023-03-08T17:35:10.538Z,96753.03
2023-03-08T17:40:14.799Z,96744.56
2023-03-08T17:45:18.798Z,96750.16
2023-03-08T17:50:23.117Z,96745.47
2023-03-08T17:55:26.225Z,96744.69
2023-03-08T18:00:29.567Z,96746.84
2023-03-08T18:05:33.876Z,96749.44
2023-03-08T18:10:36.900Z,96768.59
2023-03-08T18:15:39.976Z,96773.53
2023-03-08T18:20:44.240Z,96768.50
2023-03-08T18:25:47.182Z,96768.81
2023-03-08T18:30:50.183Z,96762.25
2023-03-08T18:36:03.722Z,96749.44
2023-03-08T18:41:14.355Z,96745.25
2023-03-08T18:46:17.316Z,96755.97
2023-03-08T18:51:21.545Z,96758.47
2023-03-08T18:56:25.932Z,96760.81
2023-03-08T19:01:30.456Z,96755.19
2023-03-08T19:06:35.420Z,96750.56
2023-03-08T19:11:38.431Z,96746.94
2023-03-08T19:16:42.113Z,96742.44
2023-03-08T19:21:48.506Z,96733.63
2023-03-08T19:26:53.320Z,96742.88
2023-03-08T19:31:58.192Z,96753.69
2023-03-08T19:37:03.486Z,96750.78
2023-03-08T19:42:08.644Z,96745.25
2023-03-08T19:47:11.580Z,96744.50
2023-03-08T19:52:15.830Z,96747.63
2023-03-08T19:57:18.825Z,96743.31
2023-03-08T20:02:21.766Z,96739.28
2023-03-08T20:07:26.067Z,96744.78
2023-03-08T20:12:28.995Z,96758.44
2023-03-08T20:17:33.050Z,96746.50
2023-03-08T20:22:37.856Z,96747.41
2023-03-08T20:27:41.442Z,96745.72
2023-03-08T20:32:44.388Z,96746.88
2023-03-08T20:37:48.966Z,96750.09
2023-03-08T20:42:51.807Z,96755.88
2023-03-08T20:47:57.420Z,96759.03
2023-03-08T20:53:01.733Z,96763.06
2023-03-08T20:58:05.354Z,96763.41
2023-03-08T21:03:08.224Z,96751.72
2023-03-08T21:08:12.515Z,96748.66
2023-03-08T21:13:15.454Z,96751.03
2023-03-08T21:18:18.380Z,96742.34
2023-03-08T21:23:23.217Z,96741.66
2023-03-08T21:28:26.087Z,96732.19
2023-03-08T21:33:29.147Z,96731.72
2023-03-08T21:38:33.402Z,96727.56
2023-03-08T21:43:36.286Z,96722.25
2023-03-08T21:48:39.219Z,96721.59
2023-03-08T21:53:44.420Z,96714.81
2023-03-08T21:58:47.358Z,96710.56
2023-03-08T22:03:50.451Z,96698.34
2023-03-08T22:08:55.023Z,96697.88
2023-03-08T22:13:59.895Z,96704.22
2023-03-08T22:19:03.408Z,96692.41
2023-03-08T22:24:08.192Z,96699.50
2023-03-08T22:29:11.121Z,96695.06
2023-03-08T22:34:13.984Z,96688.22
2023-03-08T22:39:18.275Z,96675.50
2023-03-08T22:44:21.917Z,96681.59
2023-03-08T22:49:24.824Z,96687.66
2023-03-08T22:54:29.079Z,96684.84
2023-03-08T22:59:31.999Z,96678.63
2023-03-08T23:04:35.015Z,96687.88
2023-03-08T23:09:39.354Z,96674.13
2023-03-08T23:14:44.327Z,96678.16
2023-03-08T23:19:50.287Z,96677.53
2023-03-08T23:24:54.567Z,96663.88
2023-03-08T23:29:57.511Z,96675.25
2023-03-08T23:35:00.526Z,96670.50
2023-03-08T23:40:05.409Z,96676.38
2023-03-08T23:45:10.118Z,96666.69
2023-03-08T23:50:13.497Z,96647.28
2023-03-08T23:55:17.809Z,96640.22
